Terminal Aerodrome Forecast
Issued by NWS

Home | Current Version | Previous Version | Text Only | Print | Product List | Glossary Off
Versions: 1 2 3 4 5 6 7 8 9 10 11 12 13 14 15 16 17 18 19 20 21 22

000
FTUS43 KGRB 180500
TAFATW
TAF
KATW 180525Z 1806/1906 04010G18KT P6SM SCT010 BKN050
      TEMPO 1806/1810 BKN010 BKN025
     FM181000 04010KT P6SM SCT012 BKN025
     FM181600 06007KT P6SM SCT025 SCT050
     FM182300 09003KT P6SM SCT050 SCT090=

USA.gov is the U.S. government's official web portal to all federal, state and local government web resources and services.